sensor_id;sensor_type;location;lat;lon;timestamp;P1;durP1;ratioP1;P2;durP2;ratioP2
76433;SDS011;65265;53.200;6.080;2022-12-20T00:01:47;3.63;;;1.88;;
76433;SDS011;65265;53.200;6.080;2022-12-20T00:06:39;5.95;;;3.03;;
76433;SDS011;65265;53.200;6.080;2022-12-20T00:16:23;5.82;;;2.47;;
76433;SDS011;65265;53.200;6.080;2022-12-20T00:21:17;4.20;;;2.38;;
76433;SDS011;65265;53.200;6.080;2022-12-20T00:26:11;4.88;;;2.45;;
76433;SDS011;65265;53.200;6.080;2022-12-20T00:31:04;4.00;;;2.53;;
76433;SDS011;65265;53.200;6.080;2022-12-20T00:40:57;3.90;;;1.85;;
76433;SDS011;65265;53.200;6.080;2022-12-20T00:45:51;5.10;;;2.83;;
76433;SDS011;65265;53.200;6.080;2022-12-20T00:50:42;7.25;;;2.42;;
76433;SDS011;65265;53.200;6.080;2022-12-20T00:55:34;5.55;;;2.50;;
76433;SDS011;65265;53.200;6.080;2022-12-20T01:00:25;6.25;;;2.92;;
76433;SDS011;65265;53.200;6.080;2022-12-20T01:05:18;4.03;;;2.58;;
76433;SDS011;65265;53.200;6.080;2022-12-20T01:10:10;3.75;;;1.50;;
76433;SDS011;65265;53.200;6.080;2022-12-20T01:15:02;5.70;;;2.92;;
76433;SDS011;65265;53.200;6.080;2022-12-20T01:19:55;4.30;;;2.15;;
76433;SDS011;65265;53.200;6.080;2022-12-20T01:24:48;4.65;;;2.30;;
76433;SDS011;65265;53.200;6.080;2022-12-20T01:34:31;3.65;;;2.08;;
76433;SDS011;65265;53.200;6.080;2022-12-20T01:39:23;3.83;;;2.25;;
76433;SDS011;65265;53.200;6.080;2022-12-20T01:49:44;3.45;;;1.85;;
76433;SDS011;65265;53.200;6.080;2022-12-20T01:54:40;5.32;;;1.98;;
76433;SDS011;65265;53.200;6.080;2022-12-20T01:59:36;4.32;;;2.38;;
76433;SDS011;65265;53.200;6.080;2022-12-20T02:04:32;5.75;;;1.80;;
76433;SDS011;65265;53.200;6.080;2022-12-20T02:14:18;3.72;;;1.70;;
76433;SDS011;65265;53.200;6.080;2022-12-20T02:19:35;4.70;;;1.73;;
76433;SDS011;65265;53.200;6.080;2022-12-20T02:24:53;5.35;;;1.90;;
76433;SDS011;65265;53.200;6.080;2022-12-20T02:30:14;2.90;;;1.70;;
76433;SDS011;65265;53.200;6.080;2022-12-20T02:35:08;4.47;;;2.13;;
76433;SDS011;65265;53.200;6.080;2022-12-20T02:40:04;4.10;;;2.17;;
76433;SDS011;65265;53.200;6.080;2022-12-20T02:44:57;3.28;;;1.88;;
76433;SDS011;65265;53.200;6.080;2022-12-20T02:50:14;3.70;;;2.13;;
76433;SDS011;65265;53.200;6.080;2022-12-20T02:55:08;3.95;;;1.90;;
76433;SDS011;65265;53.200;6.080;2022-12-20T03:00:02;4.05;;;2.25;;
76433;SDS011;65265;53.200;6.080;2022-12-20T03:04:56;3.20;;;1.95;;
76433;SDS011;65265;53.200;6.080;2022-12-20T03:09:50;6.18;;;2.50;;
76433;SDS011;65265;53.200;6.080;2022-12-20T03:14:42;3.90;;;2.22;;
76433;SDS011;65265;53.200;6.080;2022-12-20T03:19:33;5.80;;;2.78;;
76433;SDS011;65265;53.200;6.080;2022-12-20T03:24:25;5.75;;;2.53;;
76433;SDS011;65265;53.200;6.080;2022-12-20T03:29:18;2.97;;;2.35;;
76433;SDS011;65265;53.200;6.080;2022-12-20T03:34:09;4.18;;;2.25;;
76433;SDS011;65265;53.200;6.080;2022-12-20T03:39:01;4.53;;;1.80;;
76433;SDS011;65265;53.200;6.080;2022-12-20T03:43:52;7.28;;;2.53;;
76433;SDS011;65265;53.200;6.080;2022-12-20T03:48:45;4.28;;;2.30;;
76433;SDS011;65265;53.200;6.080;2022-12-20T03:58:28;4.65;;;1.85;;
76433;SDS011;65265;53.200;6.080;2022-12-20T04:03:19;4.95;;;2.72;;
76433;SDS011;65265;53.200;6.080;2022-12-20T04:08:13;4.45;;;2.05;;
76433;SDS011;65265;53.200;6.080;2022-12-20T04:13:05;3.85;;;2.45;;
76433;SDS011;65265;53.200;6.080;2022-12-20T04:17:56;4.55;;;2.50;;
76433;SDS011;65265;53.200;6.080;2022-12-20T04:22:48;4.00;;;3.03;;
76433;SDS011;65265;53.200;6.080;2022-12-20T04:27:43;4.22;;;2.70;;
76433;SDS011;65265;53.200;6.080;2022-12-20T04:32:34;5.20;;;2.55;;
76433;SDS011;65265;53.200;6.080;2022-12-20T04:37:26;4.03;;;2.38;;
76433;SDS011;65265;53.200;6.080;2022-12-20T04:42:18;4.93;;;2.35;;
76433;SDS011;65265;53.200;6.080;2022-12-20T04:47:10;4.53;;;3.17;;
76433;SDS011;65265;53.200;6.080;2022-12-20T04:57:07;6.47;;;2.97;;
76433;SDS011;65265;53.200;6.080;2022-12-20T05:01:59;4.63;;;2.58;;
76433;SDS011;65265;53.200;6.080;2022-12-20T05:06:52;7.00;;;1.92;;
76433;SDS011;65265;53.200;6.080;2022-12-20T05:11:43;8.60;;;2.63;;
76433;SDS011;65265;53.200;6.080;2022-12-20T05:16:35;4.75;;;1.63;;
76433;SDS011;65265;53.200;6.080;2022-12-20T05:21:27;3.20;;;2.00;;
76433;SDS011;65265;53.200;6.080;2022-12-20T05:26:37;5.88;;;2.60;;
76433;SDS011;65265;53.200;6.080;2022-12-20T05:31:29;5.63;;;2.05;;
76433;SDS011;65265;53.200;6.080;2022-12-20T05:36:21;4.03;;;2.35;;
76433;SDS011;65265;53.200;6.080;2022-12-20T05:41:12;4.65;;;2.38;;
76433;SDS011;65265;53.200;6.080;2022-12-20T05:46:06;2.67;;;1.70;;
76433;SDS011;65265;53.200;6.080;2022-12-20T05:55:50;3.53;;;1.98;;
76433;SDS011;65265;53.200;6.080;2022-12-20T06:00:43;4.32;;;2.83;;
76433;SDS011;65265;53.200;6.080;2022-12-20T06:05:37;3.67;;;2.47;;
76433;SDS011;65265;53.200;6.080;2022-12-20T06:10:29;5.78;;;2.00;;
76433;SDS011;65265;53.200;6.080;2022-12-20T06:15:21;3.80;;;2.58;;
76433;SDS011;65265;53.200;6.080;2022-12-20T06:20:12;3.55;;;2.05;;
76433;SDS011;65265;53.200;6.080;2022-12-20T06:25:06;5.32;;;1.98;;
76433;SDS011;65265;53.200;6.080;2022-12-20T06:29:58;4.32;;;2.90;;
76433;SDS011;65265;53.200;6.080;2022-12-20T06:34:50;3.97;;;2.20;;
76433;SDS011;65265;53.200;6.080;2022-12-20T06:39:41;3.50;;;2.25;;
76433;SDS011;65265;53.200;6.080;2022-12-20T06:44:35;5.85;;;2.58;;
76433;SDS011;65265;53.200;6.080;2022-12-20T06:49:26;3.00;;;1.70;;
76433;SDS011;65265;53.200;6.080;2022-12-20T06:54:17;4.32;;;2.17;;
76433;SDS011;65265;53.200;6.080;2022-12-20T06:59:09;4.95;;;2.45;;
76433;SDS011;65265;53.200;6.080;2022-12-20T07:04:02;4.68;;;2.47;;
76433;SDS011;65265;53.200;6.080;2022-12-20T07:08:53;5.15;;;3.22;;
76433;SDS011;65265;53.200;6.080;2022-12-20T07:13:45;5.57;;;3.80;;
76433;SDS011;65265;53.200;6.080;2022-12-20T07:18:37;4.13;;;2.70;;
76433;SDS011;65265;53.200;6.080;2022-12-20T07:23:30;4.70;;;2.80;;
76433;SDS011;65265;53.200;6.080;2022-12-20T07:28:22;6.88;;;2.65;;
76433;SDS011;65265;53.200;6.080;2022-12-20T07:33:15;4.10;;;2.35;;
76433;SDS011;65265;53.200;6.080;2022-12-20T07:38:06;6.20;;;3.45;;
76433;SDS011;65265;53.200;6.080;2022-12-20T07:42:59;7.25;;;3.15;;
76433;SDS011;65265;53.200;6.080;2022-12-20T07:47:50;4.75;;;3.00;;
76433;SDS011;65265;53.200;6.080;2022-12-20T07:52:42;6.40;;;2.83;;
76433;SDS011;65265;53.200;6.080;2022-12-20T07:57:36;4.32;;;3.53;;
76433;SDS011;65265;53.200;6.080;2022-12-20T08:02:36;5.00;;;3.33;;
76433;SDS011;65265;53.200;6.080;2022-12-20T08:07:32;4.57;;;2.25;;
76433;SDS011;65265;53.200;6.080;2022-12-20T08:12:24;4.38;;;2.92;;
76433;SDS011;65265;53.200;6.080;2022-12-20T08:17:19;5.95;;;2.40;;
76433;SDS011;65265;53.200;6.080;2022-12-20T08:22:12;5.63;;;2.70;;
76433;SDS011;65265;53.200;6.080;2022-12-20T08:36:46;4.53;;;2.50;;
76433;SDS011;65265;53.200;6.080;2022-12-20T08:41:39;4.50;;;2.08;;
76433;SDS011;65265;53.200;6.080;2022-12-20T08:46:31;3.05;;;1.77;;
76433;SDS011;65265;53.200;6.080;2022-12-20T08:51:22;4.32;;;2.40;;
76433;SDS011;65265;53.200;6.080;2022-12-20T08:56:15;3.90;;;2.50;;
76433;SDS011;65265;53.200;6.080;2022-12-20T09:01:10;3.70;;;2.55;;
76433;SDS011;65265;53.200;6.080;2022-12-20T09:06:04;7.57;;;3.92;;
76433;SDS011;65265;53.200;6.080;2022-12-20T09:11:01;3.90;;;1.60;;
76433;SDS011;65265;53.200;6.080;2022-12-20T09:15:54;3.30;;;2.10;;
76433;SDS011;65265;53.200;6.080;2022-12-20T09:20:47;3.83;;;1.80;;
76433;SDS011;65265;53.200;6.080;2022-12-20T09:30:30;5.63;;;1.95;;
76433;SDS011;65265;53.200;6.080;2022-12-20T09:35:22;4.07;;;2.20;;
76433;SDS011;65265;53.200;6.080;2022-12-20T09:40:17;2.80;;;1.50;;
76433;SDS011;65265;53.200;6.080;2022-12-20T09:45:23;7.15;;;2.63;;
76433;SDS011;65265;53.200;6.080;2022-12-20T09:50:20;6.22;;;1.55;;
76433;SDS011;65265;53.200;6.080;2022-12-20T09:55:29;3.60;;;2.08;;
76433;SDS011;65265;53.200;6.080;2022-12-20T10:05:19;3.80;;;1.83;;
76433;SDS011;65265;53.200;6.080;2022-12-20T10:10:24;2.85;;;1.30;;
76433;SDS011;65265;53.200;6.080;2022-12-20T10:15:43;4.70;;;1.50;;
76433;SDS011;65265;53.200;6.080;2022-12-20T10:20:43;3.38;;;1.58;;
76433;SDS011;65265;53.200;6.080;2022-12-20T10:25:50;4.00;;;1.63;;
76433;SDS011;65265;53.200;6.080;2022-12-20T10:30:44;4.15;;;1.63;;
76433;SDS011;65265;53.200;6.080;2022-12-20T10:35:37;4.38;;;1.75;;
76433;SDS011;65265;53.200;6.080;2022-12-20T10:40:30;2.83;;;1.42;;
76433;SDS011;65265;53.200;6.080;2022-12-20T10:45:32;4.70;;;1.48;;
76433;SDS011;65265;53.200;6.080;2022-12-20T10:50:26;8.48;;;3.13;;
76433;SDS011;65265;53.200;6.080;2022-12-20T10:55:31;3.30;;;1.65;;
76433;SDS011;65265;53.200;6.080;2022-12-20T11:00:26;3.60;;;1.63;;
76433;SDS011;65265;53.200;6.080;2022-12-20T11:05:22;4.07;;;1.40;;
76433;SDS011;65265;53.200;6.080;2022-12-20T11:10:16;4.53;;;1.38;;
76433;SDS011;65265;53.200;6.080;2022-12-20T11:15:10;2.97;;;1.60;;
76433;SDS011;65265;53.200;6.080;2022-12-20T11:20:15;3.80;;;1.08;;
76433;SDS011;65265;53.200;6.080;2022-12-20T11:25:24;3.88;;;2.17;;
76433;SDS011;65265;53.200;6.080;2022-12-20T11:30:28;4.22;;;1.73;;
76433;SDS011;65265;53.200;6.080;2022-12-20T11:35:30;4.05;;;1.92;;
76433;SDS011;65265;53.200;6.080;2022-12-20T11:40:36;3.97;;;2.28;;
76433;SDS011;65265;53.200;6.080;2022-12-20T11:45:35;3.55;;;2.30;;
76433;SDS011;65265;53.200;6.080;2022-12-20T11:50:48;3.53;;;1.80;;
76433;SDS011;65265;53.200;6.080;2022-12-20T12:00:46;4.75;;;3.75;;
76433;SDS011;65265;53.200;6.080;2022-12-20T12:05:44;6.55;;;3.15;;
76433;SDS011;65265;53.200;6.080;2022-12-20T12:10:42;5.50;;;2.40;;
76433;SDS011;65265;53.200;6.080;2022-12-20T12:15:50;5.57;;;3.17;;
76433;SDS011;65265;53.200;6.080;2022-12-20T12:20:49;5.47;;;2.92;;
76433;SDS011;65265;53.200;6.080;2022-12-20T12:25:47;7.13;;;3.72;;
76433;SDS011;65265;53.200;6.080;2022-12-20T12:30:42;7.28;;;3.47;;
76433;SDS011;65265;53.200;6.080;2022-12-20T12:41:12;5.68;;;3.85;;
76433;SDS011;65265;53.200;6.080;2022-12-20T12:46:32;9.07;;;4.85;;
76433;SDS011;65265;53.200;6.080;2022-12-20T12:51:28;12.77;;;5.32;;
76433;SDS011;65265;53.200;6.080;2022-12-20T12:56:29;4.95;;;3.28;;
76433;SDS011;65265;53.200;6.080;2022-12-20T13:01:45;7.03;;;4.05;;
76433;SDS011;65265;53.200;6.080;2022-12-20T13:06:50;5.55;;;4.45;;
76433;SDS011;65265;53.200;6.080;2022-12-20T13:11:46;8.15;;;3.97;;
76433;SDS011;65265;53.200;6.080;2022-12-20T13:16:38;7.35;;;4.28;;
76433;SDS011;65265;53.200;6.080;2022-12-20T13:21:31;10.20;;;5.32;;
76433;SDS011;65265;53.200;6.080;2022-12-20T13:31:48;7.90;;;4.15;;
76433;SDS011;65265;53.200;6.080;2022-12-20T13:36:39;8.20;;;4.90;;
76433;SDS011;65265;53.200;6.080;2022-12-20T13:41:36;6.60;;;5.10;;
76433;SDS011;65265;53.200;6.080;2022-12-20T13:46:35;7.65;;;5.38;;
76433;SDS011;65265;53.200;6.080;2022-12-20T13:51:34;9.23;;;6.15;;
76433;SDS011;65265;53.200;6.080;2022-12-20T13:56:33;6.38;;;5.20;;
76433;SDS011;65265;53.200;6.080;2022-12-20T14:01:29;5.53;;;4.75;;
76433;SDS011;65265;53.200;6.080;2022-12-20T14:06:22;8.00;;;6.38;;
76433;SDS011;65265;53.200;6.080;2022-12-20T14:11:16;8.77;;;7.55;;
76433;SDS011;65265;53.200;6.080;2022-12-20T14:16:09;8.40;;;6.43;;
76433;SDS011;65265;53.200;6.080;2022-12-20T14:21:05;14.52;;;7.28;;
76433;SDS011;65265;53.200;6.080;2022-12-20T14:26:00;12.27;;;7.20;;
76433;SDS011;65265;53.200;6.080;2022-12-20T14:30:52;10.57;;;8.00;;
76433;SDS011;65265;53.200;6.080;2022-12-20T14:35:46;15.70;;;8.02;;
76433;SDS011;65265;53.200;6.080;2022-12-20T14:40:39;11.35;;;8.77;;
76433;SDS011;65265;53.200;6.080;2022-12-20T14:50:28;13.85;;;9.00;;
76433;SDS011;65265;53.200;6.080;2022-12-20T14:55:22;14.70;;;9.57;;
76433;SDS011;65265;53.200;6.080;2022-12-20T15:00:19;13.80;;;10.80;;
76433;SDS011;65265;53.200;6.080;2022-12-20T15:10:36;15.98;;;10.80;;
76433;SDS011;65265;53.200;6.080;2022-12-20T15:15:27;16.50;;;11.38;;
76433;SDS011;65265;53.200;6.080;2022-12-20T15:20:19;18.25;;;12.07;;
76433;SDS011;65265;53.200;6.080;2022-12-20T15:25:15;19.75;;;12.32;;
76433;SDS011;65265;53.200;6.080;2022-12-20T15:30:10;19.83;;;13.68;;
76433;SDS011;65265;53.200;6.080;2022-12-20T15:35:03;22.65;;;12.45;;
76433;SDS011;65265;53.200;6.080;2022-12-20T15:39:54;20.98;;;13.15;;
76433;SDS011;65265;53.200;6.080;2022-12-20T15:44:47;22.13;;;13.43;;
76433;SDS011;65265;53.200;6.080;2022-12-20T15:49:39;22.08;;;12.90;;
76433;SDS011;65265;53.200;6.080;2022-12-20T15:54:31;17.88;;;12.05;;
76433;SDS011;65265;53.200;6.080;2022-12-20T15:59:24;20.17;;;13.90;;
76433;SDS011;65265;53.200;6.080;2022-12-20T16:04:18;19.23;;;12.88;;
76433;SDS011;65265;53.200;6.080;2022-12-20T16:09:10;20.02;;;12.50;;
76433;SDS011;65265;53.200;6.080;2022-12-20T16:14:02;20.63;;;13.65;;
76433;SDS011;65265;53.200;6.080;2022-12-20T16:18:53;19.00;;;13.48;;
76433;SDS011;65265;53.200;6.080;2022-12-20T16:23:46;19.95;;;12.75;;
76433;SDS011;65265;53.200;6.080;2022-12-20T16:28:39;13.82;;;9.73;;
76433;SDS011;65265;53.200;6.080;2022-12-20T16:33:31;16.77;;;10.93;;
76433;SDS011;65265;53.200;6.080;2022-12-20T16:38:22;17.45;;;12.63;;
76433;SDS011;65265;53.200;6.080;2022-12-20T16:43:15;13.52;;;9.70;;
76433;SDS011;65265;53.200;6.080;2022-12-20T16:48:07;13.27;;;8.57;;
76433;SDS011;65265;53.200;6.080;2022-12-20T16:52:59;12.63;;;8.75;;
76433;SDS011;65265;53.200;6.080;2022-12-20T16:57:50;13.40;;;9.40;;
76433;SDS011;65265;53.200;6.080;2022-12-20T17:02:45;13.00;;;8.93;;
76433;SDS011;65265;53.200;6.080;2022-12-20T17:07:37;13.05;;;8.27;;
76433;SDS011;65265;53.200;6.080;2022-12-20T17:12:28;14.77;;;9.50;;
76433;SDS011;65265;53.200;6.080;2022-12-20T17:17:20;15.00;;;9.50;;
76433;SDS011;65265;53.200;6.080;2022-12-20T17:22:13;16.77;;;9.73;;
76433;SDS011;65265;53.200;6.080;2022-12-20T17:27:08;15.70;;;10.38;;
76433;SDS011;65265;53.200;6.080;2022-12-20T17:32:00;16.23;;;9.45;;
76433;SDS011;65265;53.200;6.080;2022-12-20T17:36:53;18.13;;;11.10;;
76433;SDS011;65265;53.200;6.080;2022-12-20T17:41:47;18.85;;;11.35;;
76433;SDS011;65265;53.200;6.080;2022-12-20T17:46:39;23.08;;;12.25;;
76433;SDS011;65265;53.200;6.080;2022-12-20T17:51:30;25.67;;;13.52;;
76433;SDS011;65265;53.200;6.080;2022-12-20T17:56:22;23.73;;;13.32;;
76433;SDS011;65265;53.200;6.080;2022-12-20T18:06:10;24.25;;;11.60;;
76433;SDS011;65265;53.200;6.080;2022-12-20T18:11:01;25.25;;;13.23;;
76433;SDS011;65265;53.200;6.080;2022-12-20T18:15:53;24.63;;;13.75;;
76433;SDS011;65265;53.200;6.080;2022-12-20T18:20:46;22.95;;;12.13;;
76433;SDS011;65265;53.200;6.080;2022-12-20T18:25:37;27.30;;;13.02;;
76433;SDS011;65265;53.200;6.080;2022-12-20T18:30:29;24.73;;;13.30;;
76433;SDS011;65265;53.200;6.080;2022-12-20T18:35:20;27.77;;;15.48;;
76433;SDS011;65265;53.200;6.080;2022-12-20T18:40:13;36.97;;;16.25;;
76433;SDS011;65265;53.200;6.080;2022-12-20T18:45:06;36.55;;;18.55;;
76433;SDS011;65265;53.200;6.080;2022-12-20T18:50:00;29.67;;;16.27;;
76433;SDS011;65265;53.200;6.080;2022-12-20T18:54:51;28.10;;;13.95;;
76433;SDS011;65265;53.200;6.080;2022-12-20T18:59:44;28.10;;;13.55;;
76433;SDS011;65265;53.200;6.080;2022-12-20T19:04:35;26.42;;;13.98;;
76433;SDS011;65265;53.200;6.080;2022-12-20T19:09:27;25.50;;;14.02;;
76433;SDS011;65265;53.200;6.080;2022-12-20T19:14:19;26.58;;;15.65;;
76433;SDS011;65265;53.200;6.080;2022-12-20T19:19:12;31.60;;;14.95;;
76433;SDS011;65265;53.200;6.080;2022-12-20T19:28:56;30.40;;;16.00;;
76433;SDS011;65265;53.200;6.080;2022-12-20T19:33:49;27.45;;;14.77;;
76433;SDS011;65265;53.200;6.080;2022-12-20T19:38:44;24.48;;;13.43;;
76433;SDS011;65265;53.200;6.080;2022-12-20T19:43:37;24.90;;;13.63;;
76433;SDS011;65265;53.200;6.080;2022-12-20T19:48:28;25.48;;;14.48;;
76433;SDS011;65265;53.200;6.080;2022-12-20T19:53:21;26.40;;;14.07;;
76433;SDS011;65265;53.200;6.080;2022-12-20T19:58:15;37.13;;;19.40;;
76433;SDS011;65265;53.200;6.080;2022-12-20T20:03:06;28.05;;;12.18;;
76433;SDS011;65265;53.200;6.080;2022-12-20T20:07:57;28.92;;;14.23;;
76433;SDS011;65265;53.200;6.080;2022-12-20T20:12:49;16.20;;;9.70;;
76433;SDS011;65265;53.200;6.080;2022-12-20T20:17:42;20.65;;;9.45;;
76433;SDS011;65265;53.200;6.080;2022-12-20T20:22:34;17.88;;;10.18;;
76433;SDS011;65265;53.200;6.080;2022-12-20T20:27:25;23.42;;;13.75;;
76433;SDS011;65265;53.200;6.080;2022-12-20T20:32:16;20.90;;;12.07;;
76433;SDS011;65265;53.200;6.080;2022-12-20T20:37:09;20.05;;;11.68;;
76433;SDS011;65265;53.200;6.080;2022-12-20T20:42:01;22.13;;;8.90;;
76433;SDS011;65265;53.200;6.080;2022-12-20T20:46:52;9.93;;;5.50;;
76433;SDS011;65265;53.200;6.080;2022-12-20T20:51:44;18.83;;;10.43;;
76433;SDS011;65265;53.200;6.080;2022-12-20T20:56:37;14.32;;;8.30;;
76433;SDS011;65265;53.200;6.080;2022-12-20T21:01:28;19.20;;;10.93;;
76433;SDS011;65265;53.200;6.080;2022-12-20T21:06:20;16.40;;;9.32;;
76433;SDS011;65265;53.200;6.080;2022-12-20T21:11:12;12.35;;;6.35;;
76433;SDS011;65265;53.200;6.080;2022-12-20T21:16:07;13.65;;;7.30;;
76433;SDS011;65265;53.200;6.080;2022-12-20T21:21:03;16.85;;;9.50;;
76433;SDS011;65265;53.200;6.080;2022-12-20T21:25:56;15.68;;;7.85;;
76433;SDS011;65265;53.200;6.080;2022-12-20T21:30:55;15.20;;;8.32;;
76433;SDS011;65265;53.200;6.080;2022-12-20T21:35:49;18.60;;;10.80;;
76433;SDS011;65265;53.200;6.080;2022-12-20T21:40:48;13.35;;;7.80;;
76433;SDS011;65265;53.200;6.080;2022-12-20T21:45:39;11.18;;;6.00;;
76433;SDS011;65265;53.200;6.080;2022-12-20T21:50:31;20.15;;;11.05;;
76433;SDS011;65265;53.200;6.080;2022-12-20T21:55:24;17.63;;;11.27;;
76433;SDS011;65265;53.200;6.080;2022-12-20T22:00:16;25.08;;;13.63;;
76433;SDS011;65265;53.200;6.080;2022-12-20T22:05:08;17.15;;;9.98;;
76433;SDS011;65265;53.200;6.080;2022-12-20T22:10:00;18.67;;;10.75;;
76433;SDS011;65265;53.200;6.080;2022-12-20T22:14:53;19.58;;;12.07;;
76433;SDS011;65265;53.200;6.080;2022-12-20T22:19:44;18.58;;;11.35;;
76433;SDS011;65265;53.200;6.080;2022-12-20T22:24:36;14.07;;;8.13;;
76433;SDS011;65265;53.200;6.080;2022-12-20T22:29:28;12.05;;;7.05;;
76433;SDS011;65265;53.200;6.080;2022-12-20T22:34:20;9.82;;;6.68;;
76433;SDS011;65265;53.200;6.080;2022-12-20T22:39:12;20.70;;;12.35;;
76433;SDS011;65265;53.200;6.080;2022-12-20T22:44:04;17.65;;;9.93;;
76433;SDS011;65265;53.200;6.080;2022-12-20T22:48:56;21.25;;;10.73;;
76433;SDS011;65265;53.200;6.080;2022-12-20T22:53:49;14.57;;;7.50;;
76433;SDS011;65265;53.200;6.080;2022-12-20T22:58:40;15.32;;;9.57;;
76433;SDS011;65265;53.200;6.080;2022-12-20T23:03:32;15.65;;;7.65;;
76433;SDS011;65265;53.200;6.080;2022-12-20T23:08:25;12.52;;;8.27;;
76433;SDS011;65265;53.200;6.080;2022-12-20T23:13:20;17.42;;;10.48;;
76433;SDS011;65265;53.200;6.080;2022-12-20T23:18:29;14.85;;;8.82;;
76433;SDS011;65265;53.200;6.080;2022-12-20T23:23:21;15.50;;;9.20;;
76433;SDS011;65265;53.200;6.080;2022-12-20T23:28:12;13.98;;;7.30;;
76433;SDS011;65265;53.200;6.080;2022-12-20T23:33:05;17.55;;;8.57;;
76433;SDS011;65265;53.200;6.080;2022-12-20T23:37:57;13.73;;;8.45;;
76433;SDS011;65265;53.200;6.080;2022-12-20T23:42:50;20.25;;;10.63;;
76433;SDS011;65265;53.200;6.080;2022-12-20T23:47:43;16.58;;;8.73;;
76433;SDS011;65265;53.200;6.080;2022-12-20T23:52:36;30.70;;;8.80;;
76433;SDS011;65265;53.200;6.080;2022-12-20T23:57:28;36.47;;;10.43;;
